createdAt,value
2017-10-04T01:36:39.630Z,11.67
2017-10-04T01:36:40.209Z,11.64
2017-10-04T01:36:40.805Z,11.71
2017-10-04T01:36:41.405Z,11.62
2017-10-04T01:36:42.003Z,11.70
2017-10-04T01:36:42.605Z,11.71
2017-10-04T01:36:43.203Z,11.59
2017-10-04T01:36:43.803Z,11.65
2017-10-04T01:37:37.282Z,11.68
2017-10-04T01:37:37.857Z,11.56
2017-10-04T01:37:38.457Z,11.64
2017-10-04T01:37:39.056Z,11.65
2017-10-04T01:37:39.655Z,11.65
2017-10-04T01:37:40.256Z,11.62
2017-10-04T01:37:40.855Z,11.64
2017-10-04T01:37:41.455Z,11.64
2017-10-04T01:38:34.936Z,11.67
2017-10-04T01:38:35.512Z,11.64
2017-10-04T01:38:36.108Z,11.67
2017-10-04T01:38:36.707Z,11.57
2017-10-04T01:38:37.305Z,11.68
2017-10-04T01:38:37.909Z,11.67
2017-10-04T01:38:38.505Z,11.70
2017-10-04T01:38:39.107Z,11.68
2017-10-04T01:39:32.598Z,11.65
2017-10-04T01:39:33.160Z,11.64
2017-10-04T01:39:33.760Z,11.64
2017-10-04T01:39:34.359Z,11.64
2017-10-04T01:39:34.959Z,11.71
2017-10-04T01:39:35.559Z,11.62
2017-10-04T01:39:36.160Z,11.70
2017-10-04T01:39:36.761Z,11.71
2017-10-04T01:40:31.264Z,11.68
2017-10-04T01:40:31.837Z,11.71
2017-10-04T01:40:32.436Z,11.74
2017-10-04T01:40:33.035Z,11.70
2017-10-04T01:40:33.635Z,11.74
2017-10-04T01:40:34.236Z,11.67
2017-10-04T01:40:34.835Z,11.72
2017-10-04T01:40:35.433Z,11.71
2017-10-04T01:41:28.915Z,11.67
2017-10-04T01:41:29.491Z,11.71
2017-10-04T01:41:30.088Z,11.75
2017-10-04T01:41:30.689Z,11.72
2017-10-04T01:41:31.290Z,11.68
2017-10-04T01:41:31.888Z,11.72
2017-10-04T01:41:32.490Z,11.75
2017-10-04T01:41:33.088Z,11.71
2017-10-04T01:42:26.566Z,11.72
2017-10-04T01:42:27.143Z,11.74
2017-10-04T01:42:27.741Z,11.77
2017-10-04T01:42:28.355Z,11.75
2017-10-04T01:42:28.941Z,11.77
2017-10-04T01:42:29.538Z,11.74
2017-10-04T01:42:30.138Z,11.72
2017-10-04T01:42:30.738Z,11.74
2017-10-04T01:43:25.243Z,11.78
2017-10-04T01:43:25.818Z,11.74
2017-10-04T01:43:26.421Z,11.74
2017-10-04T01:43:27.017Z,11.78
2017-10-04T01:43:27.618Z,11.78
2017-10-04T01:43:28.218Z,11.83
2017-10-04T01:43:28.817Z,11.85
2017-10-04T01:43:29.418Z,11.82
2017-10-04T01:44:23.919Z,11.82
2017-10-04T01:44:24.492Z,11.82
2017-10-04T01:44:25.091Z,11.80
2017-10-04T01:44:25.692Z,11.87
2017-10-04T01:44:26.295Z,11.85
2017-10-04T01:44:26.890Z,11.72
2017-10-04T01:44:27.490Z,11.83
2017-10-04T01:44:28.092Z,11.80
2017-10-04T01:45:22.593Z,11.85
2017-10-04T01:45:23.168Z,11.80
2017-10-04T01:45:23.767Z,11.93
2017-10-04T01:45:24.367Z,11.87
2017-10-04T01:45:24.967Z,11.83
2017-10-04T01:45:25.568Z,11.89
2017-10-04T01:45:26.167Z,11.77
2017-10-04T01:45:26.767Z,11.86
2017-10-04T01:46:21.270Z,11.85
2017-10-04T01:46:21.843Z,11.90
2017-10-04T01:46:22.447Z,11.86
2017-10-04T01:46:23.050Z,11.82
2017-10-04T01:46:23.643Z,11.93
2017-10-04T01:46:24.244Z,11.87
2017-10-04T01:46:24.844Z,11.97
2017-10-04T01:46:25.443Z,11.89
2017-10-04T01:47:19.952Z,11.83
2017-10-04T01:47:20.520Z,11.93
2017-10-04T01:47:21.119Z,11.86
2017-10-04T01:47:21.719Z,11.96
2017-10-04T01:47:22.319Z,11.94
2017-10-04T01:47:22.919Z,11.96
2017-10-04T01:47:23.523Z,11.90
2017-10-04T01:47:24.118Z,11.93
2017-10-04T01:48:18.622Z,11.93
2017-10-04T01:48:19.195Z,11.93
2017-10-04T01:48:19.796Z,11.90
2017-10-04T01:48:20.400Z,11.99
2017-10-04T01:48:20.996Z,11.86
2017-10-04T01:48:21.595Z,11.89
2017-10-04T01:48:22.195Z,11.97
2017-10-04T01:48:22.797Z,11.90
2017-10-04T01:49:17.299Z,12.01
2017-10-04T01:49:17.872Z,11.96
2017-10-04T01:49:18.471Z,11.99
2017-10-04T01:49:19.070Z,11.97
2017-10-04T01:49:19.671Z,12.02
2017-10-04T01:49:20.271Z,11.99
2017-10-04T01:49:20.870Z,11.97
2017-10-04T01:49:21.470Z,11.97
2017-10-04T01:50:15.973Z,12.05
2017-10-04T01:50:16.547Z,12.01
2017-10-04T01:50:17.146Z,12.04
2017-10-04T01:50:17.746Z,12.11
2017-10-04T01:50:18.346Z,11.97
2017-10-04T01:50:18.945Z,12.05
2017-10-04T01:50:19.547Z,11.99
2017-10-04T01:50:20.147Z,11.99
2017-10-04T01:51:14.649Z,12.01
2017-10-04T01:51:15.224Z,12.02
2017-10-04T01:51:15.823Z,12.08
2017-10-04T01:51:16.425Z,12.08
2017-10-04T01:51:17.023Z,12.02
2017-10-04T01:51:17.622Z,12.08
2017-10-04T01:51:18.221Z,11.99
2017-10-04T01:51:18.822Z,12.04
2017-10-04T01:52:13.325Z,12.04
2017-10-04T01:52:13.899Z,12.09
2017-10-04T01:52:14.497Z,12.12
2017-10-04T01:52:15.099Z,12.06
2017-10-04T01:52:15.698Z,12.05
2017-10-04T01:52:16.298Z,12.11
2017-10-04T01:52:16.897Z,12.01
2017-10-04T01:52:17.497Z,12.09
2017-10-04T01:53:12.002Z,12.12
2017-10-04T01:53:12.575Z,12.11
2017-10-04T01:53:13.175Z,12.05
2017-10-04T01:53:13.774Z,12.13
2017-10-04T01:53:14.373Z,12.08
2017-10-04T01:53:14.974Z,12.05
2017-10-04T01:53:15.574Z,12.15
2017-10-04T01:53:16.175Z,12.08
2017-10-04T01:54:09.651Z,12.12
2017-10-04T01:54:10.227Z,12.15
2017-10-04T01:54:10.830Z,12.16
2017-10-04T01:54:11.427Z,12.15
2017-10-04T01:54:12.027Z,12.11
2017-10-04T01:54:12.627Z,12.16
2017-10-04T01:54:13.227Z,12.13
2017-10-04T01:54:13.825Z,12.20
2017-10-04T01:55:11.298Z,12.15
2017-10-04T01:55:11.871Z,12.21
2017-10-04T01:55:12.470Z,12.19
2017-10-04T01:56:07.515Z,12.19
2017-10-04T01:56:08.089Z,12.16
2017-10-04T01:56:08.687Z,12.15
2017-10-04T01:56:09.288Z,12.16
2017-10-04T01:56:09.888Z,12.16
2017-10-04T01:56:10.488Z,12.19
2017-10-04T01:56:11.089Z,12.20
2017-10-04T01:57:05.575Z,12.13
2017-10-04T01:57:06.150Z,12.13
2017-10-04T01:57:06.749Z,12.16
2017-10-04T01:57:07.349Z,12.19
2017-10-04T01:57:07.949Z,12.16
2017-10-04T01:57:08.553Z,12.31
2017-10-04T01:57:09.151Z,12.34
2017-10-04T01:57:09.748Z,12.15
2017-10-04T01:58:03.228Z,12.19
2017-10-04T01:58:03.803Z,12.26
2017-10-04T01:58:04.403Z,12.30
2017-10-04T01:58:05.003Z,12.26
2017-10-04T01:58:05.603Z,12.19
2017-10-04T01:58:06.202Z,12.30
2017-10-04T01:58:06.803Z,12.29
2017-10-04T01:58:07.404Z,12.29
2017-10-04T01:59:00.880Z,12.26
2017-10-04T01:59:01.455Z,12.27
2017-10-04T01:59:02.055Z,12.27
2017-10-04T01:59:02.654Z,12.31
2017-10-04T01:59:03.254Z,12.30
2017-10-04T01:59:03.854Z,12.27
2017-10-04T01:59:04.454Z,12.29
2017-10-04T01:59:05.058Z,12.30
2017-10-04T01:59:58.532Z,12.30
2017-10-04T01:59:59.107Z,12.24
2017-10-04T01:59:59.706Z,12.21
2017-10-04T02:00:00.308Z,12.27
2017-10-04T02:00:00.916Z,12.30
2017-10-04T02:00:01.506Z,12.30
2017-10-04T02:00:02.108Z,12.31
2017-10-04T02:00:02.706Z,12.44
2017-10-04T02:00:56.185Z,12.37
2017-10-04T02:00:56.758Z,12.26
2017-10-04T02:00:57.360Z,12.33
2017-10-04T02:00:57.957Z,12.34
2017-10-04T02:00:58.558Z,12.27
2017-10-04T02:00:59.157Z,12.31
2017-10-04T02:00:59.758Z,12.31
2017-10-04T02:01:00.359Z,12.39
2017-10-04T02:01:54.862Z,12.41
2017-10-04T02:01:55.433Z,12.42
2017-10-04T02:01:56.033Z,12.38
2017-10-04T02:01:56.634Z,12.33
2017-10-04T02:01:57.233Z,12.37
2017-10-04T02:01:57.833Z,12.34
2017-10-04T02:01:58.432Z,12.31
2017-10-04T02:01:59.037Z,12.44
2017-10-04T02:02:52.511Z,12.33
2017-10-04T02:02:53.089Z,12.45
2017-10-04T02:02:53.685Z,12.33
2017-10-04T02:02:54.286Z,12.38
2017-10-04T02:02:54.888Z,12.46
2017-10-04T02:02:55.485Z,12.30
2017-10-04T02:02:56.085Z,12.46
2017-10-04T02:02:56.686Z,12.38
2017-10-04T02:03:51.190Z,12.38
2017-10-04T02:03:51.760Z,12.44
2017-10-04T02:03:52.360Z,12.39
2017-10-04T02:03:52.966Z,12.48
2017-10-04T02:03:53.563Z,12.48
2017-10-04T02:03:54.161Z,12.44
2017-10-04T02:03:54.763Z,12.46
2017-10-04T02:03:55.359Z,12.49
2017-10-04T02:04:49.864Z,12.38
2017-10-04T02:04:50.436Z,12.44
2017-10-04T02:04:51.036Z,12.42
2017-10-04T02:04:51.635Z,12.42
2017-10-04T02:04:52.247Z,12.41
2017-10-04T02:04:52.835Z,12.41
2017-10-04T02:04:53.435Z,12.46
2017-10-04T02:04:54.035Z,12.44
2017-10-04T02:05:47.514Z,12.38
2017-10-04T02:05:48.088Z,12.44
2017-10-04T02:05:48.690Z,12.39
2017-10-04T02:05:49.288Z,12.42
2017-10-04T02:05:49.889Z,12.42
2017-10-04T02:05:50.488Z,12.37
2017-10-04T02:05:51.088Z,12.41
2017-10-04T02:05:51.689Z,12.44
2017-10-04T02:06:46.189Z,12.41
2017-10-04T02:06:46.777Z,12.45
2017-10-04T02:06:47.370Z,12.44
2017-10-04T02:06:47.963Z,12.46
2017-10-04T02:06:48.563Z,12.44
2017-10-04T02:06:49.164Z,12.49
2017-10-04T02:06:49.763Z,12.45
2017-10-04T02:06:50.363Z,12.44
2017-10-04T02:07:44.867Z,12.44
2017-10-04T02:07:45.438Z,12.51
2017-10-04T02:07:46.046Z,12.39
2017-10-04T02:07:46.639Z,12.51
2017-10-04T02:07:47.240Z,12.45
2017-10-04T02:07:47.839Z,12.46
2017-10-04T02:07:48.440Z,12.39
2017-10-04T02:07:49.039Z,12.44
2017-10-04T02:08:42.517Z,12.42
2017-10-04T02:08:43.091Z,12.52
2017-10-04T02:08:43.692Z,12.51
2017-10-04T02:08:44.291Z,12.51
2017-10-04T02:08:44.891Z,12.38
2017-10-04T02:08:45.491Z,12.44
2017-10-04T02:08:46.091Z,12.41
2017-10-04T02:08:46.690Z,12.52
2017-10-04T02:09:40.170Z,12.41
2017-10-04T02:09:40.743Z,12.51
2017-10-04T02:09:41.345Z,12.52
2017-10-04T02:09:41.942Z,12.51
2017-10-04T02:09:42.544Z,12.51
2017-10-04T02:09:43.142Z,12.49
2017-10-04T02:09:43.741Z,12.52
2017-10-04T02:09:44.349Z,12.54
2017-10-04T02:10:38.843Z,12.54
2017-10-04T02:10:39.419Z,12.51
2017-10-04T02:10:40.019Z,12.49
2017-10-04T02:10:40.618Z,12.52
2017-10-04T02:10:41.217Z,12.54
2017-10-04T02:10:41.819Z,12.60
2017-10-04T02:10:42.417Z,12.56
2017-10-04T02:10:43.017Z,12.51
2017-10-04T02:11:36.496Z,12.52
2017-10-04T02:11:37.069Z,12.51
2017-10-04T02:11:37.670Z,12.49
2017-10-04T02:11:38.271Z,12.51
2017-10-04T02:11:38.872Z,12.63
2017-10-04T02:11:39.470Z,12.52
2017-10-04T02:11:40.071Z,12.52
2017-10-04T02:11:40.670Z,12.51
2017-10-04T02:12:34.148Z,12.51
2017-10-04T02:12:34.722Z,12.59
2017-10-04T02:12:35.321Z,12.56
2017-10-04T02:12:35.922Z,12.52
2017-10-04T02:12:36.522Z,12.56
2017-10-04T02:12:37.121Z,12.57
2017-10-04T02:12:37.725Z,12.54
2017-10-04T02:12:38.320Z,12.52
2017-10-04T02:13:32.826Z,12.63
2017-10-04T02:13:33.398Z,12.59
2017-10-04T02:13:34.000Z,12.59
2017-10-04T02:13:34.598Z,12.60
2017-10-04T02:13:35.202Z,12.63
2017-10-04T02:13:35.797Z,12.57
2017-10-04T02:13:36.397Z,12.60
2017-10-04T02:13:36.998Z,12.57
2017-10-04T02:14:31.501Z,12.49
2017-10-04T02:14:32.074Z,12.54
2017-10-04T02:14:32.673Z,12.62
2017-10-04T02:14:33.273Z,12.62
2017-10-04T02:14:33.873Z,12.54
2017-10-04T02:14:34.494Z,12.62
2017-10-04T02:14:35.072Z,12.59
2017-10-04T02:14:35.672Z,12.59
2017-10-04T02:15:29.151Z,12.60
2017-10-04T02:15:29.726Z,12.57
2017-10-04T02:15:30.324Z,12.60
2017-10-04T02:15:30.925Z,12.67
2017-10-04T02:15:31.526Z,12.64
2017-10-04T02:15:32.125Z,12.64
2017-10-04T02:15:32.726Z,12.70
2017-10-04T02:15:33.325Z,12.52
2017-10-04T02:16:27.830Z,12.56
2017-10-04T02:16:28.401Z,12.70
2017-10-04T02:16:29.000Z,12.54
2017-10-04T02:16:29.599Z,12.59
2017-10-04T02:16:30.199Z,12.56
2017-10-04T02:16:30.800Z,12.74
2017-10-04T02:16:31.399Z,12.51
2017-10-04T02:16:31.998Z,12.57
2017-10-04T02:17:26.503Z,12.67
2017-10-04T02:17:27.079Z,12.62
2017-10-04T02:17:27.675Z,12.54
2017-10-04T02:17:28.275Z,12.59
2017-10-04T02:17:28.876Z,12.74
2017-10-04T02:17:29.475Z,12.69
2017-10-04T02:17:30.077Z,12.67
2017-10-04T02:17:30.677Z,12.69
2017-10-04T02:18:24.156Z,12.71
2017-10-04T02:18:24.727Z,12.59
2017-10-04T02:18:25.327Z,12.59
2017-10-04T02:18:25.928Z,12.59
2017-10-04T02:18:26.527Z,12.62
2017-10-04T02:18:27.128Z,12.57
2017-10-04T02:18:27.729Z,12.60
2017-10-04T02:18:28.334Z,12.57
2017-10-04T02:19:22.832Z,12.57
2017-10-04T02:19:23.404Z,12.59
2017-10-04T02:19:24.004Z,12.62
2017-10-04T02:19:24.603Z,12.63
2017-10-04T02:19:25.209Z,12.59
2017-10-04T02:19:25.803Z,12.59
2017-10-04T02:19:26.414Z,12.62
2017-10-04T02:19:27.004Z,12.62
2017-10-04T02:20:20.481Z,12.56
2017-10-04T02:20:21.055Z,12.60
2017-10-04T02:20:21.654Z,12.63
2017-10-04T02:20:22.255Z,12.67
2017-10-04T02:20:22.856Z,12.57
2017-10-04T02:20:23.454Z,12.59
2017-10-04T02:20:24.053Z,12.64
2017-10-04T02:20:24.654Z,12.56
2017-10-04T02:21:18.132Z,12.66
2017-10-04T02:21:18.707Z,12.62
2017-10-04T02:21:19.308Z,12.63
2017-10-04T02:21:19.911Z,12.59
2017-10-04T02:21:20.507Z,12.56
2017-10-04T02:21:21.107Z,12.63
2017-10-04T02:21:21.707Z,12.64
2017-10-04T02:21:22.307Z,12.59
2017-10-04T02:22:15.783Z,12.59
2017-10-04T02:22:16.359Z,12.64
2017-10-04T02:22:16.959Z,12.59
2017-10-04T02:22:17.558Z,12.60
2017-10-04T02:22:18.158Z,12.63
2017-10-04T02:22:18.757Z,12.74
2017-10-04T02:22:19.359Z,12.60
2017-10-04T02:22:19.958Z,12.62
2017-10-04T02:23:14.462Z,12.60
2017-10-04T02:23:15.041Z,12.64
2017-10-04T02:23:15.633Z,12.64
2017-10-04T02:23:16.233Z,12.63
2017-10-04T02:23:16.834Z,12.67
2017-10-04T02:23:17.432Z,12.64
2017-10-04T02:23:18.034Z,12.62
2017-10-04T02:23:18.635Z,12.62
2017-10-04T02:24:12.113Z,12.60
2017-10-04T02:24:12.686Z,12.60
2017-10-04T02:24:13.285Z,12.62
2017-10-04T02:24:13.885Z,12.64
2017-10-04T02:24:14.486Z,12.66
2017-10-04T02:24:15.084Z,12.66
2017-10-04T02:24:15.686Z,12.67
2017-10-04T02:24:16.289Z,12.64
2017-10-04T02:25:10.790Z,12.60
2017-10-04T02:25:11.362Z,12.67
2017-10-04T02:25:11.962Z,12.66
2017-10-04T02:25:12.563Z,12.64
2017-10-04T02:25:13.162Z,12.66
2017-10-04T02:25:13.760Z,12.67
2017-10-04T02:25:14.359Z,12.67
2017-10-04T02:25:14.961Z,12.67
2017-10-04T02:26:09.464Z,12.62
2017-10-04T02:26:10.037Z,12.69
2017-10-04T02:26:10.636Z,12.69
2017-10-04T02:26:11.236Z,12.70
2017-10-04T02:26:11.837Z,12.67
2017-10-04T02:26:12.436Z,12.64
2017-10-04T02:26:13.036Z,12.66
2017-10-04T02:26:13.637Z,12.67
2017-10-04T02:27:07.115Z,12.67
2017-10-04T02:27:07.690Z,12.67
2017-10-04T02:27:08.290Z,12.69
2017-10-04T02:27:08.890Z,12.60
2017-10-04T02:27:09.492Z,12.64
2017-10-04T02:27:10.098Z,12.69
2017-10-04T02:27:10.688Z,12.69
2017-10-04T02:27:11.288Z,12.64
2017-10-04T02:28:04.767Z,12.67
2017-10-04T02:28:05.341Z,12.70
2017-10-04T02:28:05.941Z,12.67
2017-10-04T02:28:06.541Z,12.63
2017-10-04T02:28:07.140Z,12.64
2017-10-04T02:28:07.742Z,12.67
2017-10-04T02:28:08.341Z,12.69
2017-10-04T02:28:08.947Z,12.69
2017-10-04T02:29:03.953Z,12.64
2017-10-04T02:29:04.528Z,12.75
2017-10-04T02:29:05.128Z,12.67
2017-10-04T02:29:05.728Z,12.71
2017-10-04T02:29:06.327Z,12.66
2017-10-04T02:29:06.932Z,12.64
2017-10-04T02:29:07.526Z,12.67
2017-10-04T02:32:53.434Z,12.67
2017-10-04T02:32:54.008Z,12.75
2017-10-04T02:32:54.608Z,12.75
2017-10-04T02:32:55.207Z,12.69
2017-10-04T02:32:55.807Z,12.75
2017-10-04T02:32:56.406Z,12.70
2017-10-04T02:32:57.005Z,12.75
2017-10-04T02:32:57.606Z,12.70
2017-10-04T02:32:58.207Z,12.69
2017-10-04T02:32:58.806Z,12.70
2017-10-04T02:32:59.407Z,12.71
2017-10-04T02:33:00.009Z,12.71
2017-10-04T02:33:00.606Z,12.71
2017-10-04T02:33:01.205Z,12.71
2017-10-04T02:33:01.805Z,12.70
2017-10-04T02:33:02.405Z,12.77
2017-10-04T02:51:17.620Z,12.59
2017-10-04T02:51:18.192Z,12.63
2017-10-04T02:51:18.792Z,12.60
2017-10-04T02:51:19.392Z,12.70
2017-10-04T02:51:19.992Z,12.60
2017-10-04T02:51:20.592Z,12.69
2017-10-04T02:51:21.191Z,12.62
2017-10-04T02:51:21.792Z,12.63
2017-10-04T02:52:15.272Z,12.64
2017-10-04T02:52:15.845Z,12.69
2017-10-04T02:52:16.444Z,12.62
2017-10-04T02:52:17.043Z,12.57
2017-10-04T02:52:17.642Z,12.60
2017-10-04T02:52:18.245Z,12.54
2017-10-04T02:52:18.843Z,12.62
2017-10-04T02:52:19.444Z,12.56
2017-10-04T02:53:12.922Z,12.62
2017-10-04T02:53:13.496Z,12.60
2017-10-04T02:53:14.096Z,12.57
2017-10-04T02:53:14.695Z,12.63
2017-10-04T02:53:15.296Z,12.60
2017-10-04T02:53:15.896Z,12.60
2017-10-04T02:53:16.495Z,12.60
2017-10-04T02:53:17.096Z,12.59
2017-10-04T02:54:11.598Z,12.66
2017-10-04T02:54:12.171Z,12.69
2017-10-04T02:54:12.772Z,12.64
2017-10-04T02:54:13.371Z,12.60
2017-10-04T02:54:13.970Z,12.62
2017-10-04T02:54:14.575Z,12.59
2017-10-04T02:54:15.170Z,12.60
2017-10-04T02:54:15.771Z,12.63
2017-10-04T02:55:09.762Z,12.57
2017-10-04T02:55:10.341Z,12.56
2017-10-04T02:55:10.937Z,12.54
2017-10-04T02:55:11.536Z,12.60
2017-10-04T02:55:12.136Z,12.59
2017-10-04T02:55:12.737Z,12.74
2017-10-04T02:55:13.336Z,12.69
2017-10-04T02:56:06.913Z,12.69
2017-10-04T02:56:07.478Z,12.54
2017-10-04T02:56:08.077Z,12.51
2017-10-04T02:56:08.677Z,12.67
2017-10-04T02:56:09.276Z,12.60
2017-10-04T02:56:09.877Z,12.56
2017-10-04T02:56:10.475Z,12.70
2017-10-04T02:56:11.076Z,12.54
2017-10-04T02:57:05.579Z,12.57
2017-10-04T02:57:06.153Z,12.54
2017-10-04T02:57:06.751Z,12.52
2017-10-04T02:57:07.350Z,12.57
2017-10-04T02:57:07.951Z,12.69
2017-10-04T02:57:08.551Z,12.52
2017-10-04T02:57:09.150Z,12.71
2017-10-04T02:57:09.749Z,12.52
2017-10-04T02:58:04.253Z,12.66
2017-10-04T02:58:04.827Z,12.62
2017-10-04T02:58:05.427Z,12.64
2017-10-04T02:58:06.027Z,12.74
2017-10-04T02:58:06.627Z,12.69
2017-10-04T02:58:07.231Z,12.69
2017-10-04T02:58:07.827Z,12.66
2017-10-04T02:58:08.426Z,12.59
2017-10-04T02:59:01.906Z,12.54
2017-10-04T02:59:02.481Z,12.71
2017-10-04T02:59:03.084Z,12.66
2017-10-04T02:59:03.678Z,12.62
2017-10-04T02:59:04.277Z,12.69
2017-10-04T02:59:04.877Z,12.66
2017-10-04T02:59:05.478Z,12.63
2017-10-04T02:59:06.077Z,12.62
2017-10-04T03:00:00.582Z,12.54
2017-10-04T03:00:01.157Z,12.52
2017-10-04T03:00:01.754Z,12.56
2017-10-04T03:00:02.354Z,12.67
2017-10-04T03:00:02.960Z,12.78
2017-10-04T03:00:03.554Z,12.70
2017-10-04T03:00:04.153Z,12.74
2017-10-04T03:00:04.754Z,12.62
2017-10-04T03:00:59.257Z,12.67
2017-10-04T03:00:59.834Z,12.67
2017-10-04T03:01:00.430Z,12.70
2017-10-04T03:01:01.029Z,12.63
2017-10-04T03:01:01.629Z,12.60
2017-10-04T03:01:02.231Z,12.74
2017-10-04T03:01:02.830Z,12.59
2017-10-04T03:01:03.430Z,12.52
2017-10-04T03:01:56.912Z,12.57
2017-10-04T03:01:57.493Z,12.62
2017-10-04T03:01:58.085Z,12.60
2017-10-04T03:01:58.683Z,12.60
2017-10-04T03:01:59.283Z,12.60
2017-10-04T03:01:59.884Z,12.66
2017-10-04T03:02:00.482Z,12.63
2017-10-04T03:02:01.082Z,12.57
2017-10-04T03:02:55.586Z,12.64
2017-10-04T03:02:56.158Z,12.54
2017-10-04T03:02:56.759Z,12.62
2017-10-04T03:02:57.358Z,12.66
2017-10-04T03:02:57.957Z,12.57
2017-10-04T03:02:58.558Z,12.62
2017-10-04T03:02:59.158Z,12.60
2017-10-04T03:02:59.758Z,12.60
2017-10-04T03:03:53.237Z,12.62
2017-10-04T03:03:53.811Z,12.59
2017-10-04T03:03:54.410Z,12.59
2017-10-04T03:03:55.011Z,12.62
2017-10-04T03:03:55.614Z,12.60
2017-10-04T03:03:56.211Z,12.64
2017-10-04T03:03:56.810Z,12.69
2017-10-04T03:03:57.411Z,12.59
2017-10-04T03:04:51.914Z,12.64
2017-10-04T03:04:52.486Z,12.62
2017-10-04T03:04:53.086Z,12.63
2017-10-04T03:04:53.686Z,12.64
2017-10-04T03:04:54.286Z,12.60
2017-10-04T03:04:54.886Z,12.52
2017-10-04T03:04:55.486Z,12.54
2017-10-04T03:04:56.087Z,12.64
2017-10-04T03:05:50.589Z,12.59
2017-10-04T03:05:51.162Z,12.59
2017-10-04T03:05:51.762Z,12.62
2017-10-04T03:05:52.361Z,12.59
2017-10-04T03:05:52.961Z,12.64
2017-10-04T03:05:53.560Z,12.60
2017-10-04T03:05:54.164Z,12.57
2017-10-04T03:05:54.760Z,12.60
2017-10-04T03:06:48.239Z,12.63
2017-10-04T03:06:48.814Z,12.64
2017-10-04T03:06:49.413Z,12.67
2017-10-04T03:06:50.013Z,12.66
2017-10-04T03:06:50.614Z,12.62
2017-10-04T03:06:51.215Z,12.67
2017-10-04T03:06:51.814Z,12.67
2017-10-04T03:06:52.413Z,12.69
2017-10-04T03:07:45.892Z,12.63
2017-10-04T03:07:46.466Z,12.62
2017-10-04T03:07:47.064Z,12.67
2017-10-04T03:07:47.666Z,12.69
2017-10-04T03:07:48.266Z,12.67
2017-10-04T03:07:48.864Z,12.60
2017-10-04T03:07:49.469Z,12.64
2017-10-04T03:07:50.065Z,12.66
2017-10-04T03:08:44.569Z,12.67
2017-10-04T03:08:45.144Z,12.64
2017-10-04T03:08:45.740Z,12.69
2017-10-04T03:08:46.340Z,12.70
2017-10-04T03:08:46.940Z,12.69
2017-10-04T03:08:47.539Z,12.69
2017-10-04T03:08:48.141Z,12.67
2017-10-04T03:08:48.744Z,12.69
2017-10-04T03:09:43.244Z,12.66
2017-10-04T03:09:43.816Z,12.67
2017-10-04T03:09:44.415Z,12.67
2017-10-04T03:09:45.017Z,12.70
2017-10-04T03:09:45.621Z,12.70
2017-10-04T03:09:46.217Z,12.69
2017-10-04T03:09:46.816Z,12.69
2017-10-04T03:09:47.415Z,12.67
2017-10-04T03:10:40.895Z,12.71
2017-10-04T03:10:41.477Z,12.74
2017-10-04T03:10:42.072Z,12.70
2017-10-04T03:10:42.668Z,12.70
2017-10-04T03:10:43.268Z,12.75
2017-10-04T03:10:43.867Z,12.69
2017-10-04T03:10:44.468Z,12.74
2017-10-04T03:10:45.069Z,12.71
2017-10-04T03:11:39.572Z,12.69
2017-10-04T03:11:40.143Z,12.79
2017-10-04T03:11:40.743Z,12.79
2017-10-04T03:11:41.342Z,12.71
2017-10-04T03:11:41.946Z,12.70
2017-10-04T03:11:42.544Z,12.66
2017-10-04T03:11:43.156Z,12.75
2017-10-04T03:11:43.745Z,12.79
2017-10-04T03:12:38.246Z,12.75
2017-10-04T03:12:38.819Z,12.77
2017-10-04T03:12:39.420Z,12.71
2017-10-04T03:12:40.019Z,12.69
2017-10-04T03:12:40.619Z,12.71
2017-10-04T03:12:41.229Z,12.74
2017-10-04T03:12:41.819Z,12.74
2017-10-04T03:12:42.419Z,12.67
2017-10-04T03:13:36.923Z,12.75
2017-10-04T03:13:37.496Z,12.75
2017-10-04T03:13:38.095Z,12.77
2017-10-04T03:13:38.695Z,12.67
2017-10-04T03:13:39.295Z,12.70
2017-10-04T03:13:39.895Z,12.78
2017-10-04T03:13:40.494Z,12.74
2017-10-04T03:13:41.093Z,12.70
2017-10-04T03:14:35.599Z,12.69
2017-10-04T03:14:36.170Z,12.74
2017-10-04T03:14:36.770Z,12.69
2017-10-04T03:14:37.371Z,12.71
2017-10-04T03:14:37.971Z,12.70
2017-10-04T03:14:38.569Z,12.67
2017-10-04T03:14:39.170Z,12.70
2017-10-04T03:14:39.769Z,12.75
2017-10-04T03:15:34.271Z,12.67
2017-10-04T03:15:34.846Z,12.75
2017-10-04T03:15:35.446Z,12.71
2017-10-04T03:15:36.047Z,12.71
2017-10-04T03:15:36.648Z,12.75
2017-10-04T03:15:37.247Z,12.77
2017-10-04T03:15:37.846Z,12.70
2017-10-04T03:15:38.445Z,12.75
2017-10-04T03:16:31.928Z,12.69
2017-10-04T03:16:32.498Z,12.67
2017-10-04T03:16:33.098Z,12.74
2017-10-04T03:16:33.697Z,12.70
2017-10-04T03:16:34.298Z,12.77
2017-10-04T03:16:34.897Z,12.75
2017-10-04T03:16:35.497Z,12.77
2017-10-04T03:16:36.096Z,12.81
2017-10-04T03:17:30.603Z,12.75
2017-10-04T03:17:31.175Z,12.77
2017-10-04T03:17:31.774Z,12.77
2017-10-04T03:17:32.373Z,12.77
2017-10-04T03:17:32.983Z,12.77
2017-10-04T03:17:33.578Z,12.75
2017-10-04T03:17:34.173Z,12.78
2017-10-04T03:17:34.773Z,12.79
2017-10-04T03:18:29.277Z,12.75
2017-10-04T03:18:29.848Z,12.74
2017-10-04T03:18:30.449Z,12.81
2017-10-04T03:18:31.048Z,12.79
2017-10-04T03:18:31.647Z,12.79
2017-10-04T03:18:32.249Z,12.77
2017-10-04T03:18:32.849Z,12.75
2017-10-04T03:18:33.449Z,12.78
2017-10-04T03:19:26.928Z,12.79
2017-10-04T03:19:27.502Z,12.75
2017-10-04T03:19:28.102Z,12.78
2017-10-04T03:19:28.701Z,12.71
2017-10-04T03:19:29.303Z,12.84
2017-10-04T03:19:29.900Z,12.85
2017-10-04T03:19:30.505Z,12.70
2017-10-04T03:19:31.101Z,12.81
2017-10-04T03:20:25.605Z,12.79
2017-10-04T03:20:26.176Z,12.75
2017-10-04T03:20:26.777Z,12.78
2017-10-04T03:20:27.376Z,12.78
2017-10-04T03:20:27.976Z,12.78
2017-10-04T03:20:28.576Z,12.77
2017-10-04T03:20:29.175Z,12.78
2017-10-04T03:20:29.781Z,12.79
2017-10-04T03:21:24.280Z,12.75
2017-10-04T03:21:24.852Z,12.82
2017-10-04T03:21:25.451Z,12.75
2017-10-04T03:21:26.053Z,12.74
2017-10-04T03:21:26.653Z,12.78
2017-10-04T03:21:27.252Z,12.70
2017-10-04T03:21:27.853Z,12.82
2017-10-04T03:21:28.452Z,12.74
2017-10-04T03:22:22.956Z,12.77
2017-10-04T03:22:23.528Z,12.79
2017-10-04T03:22:24.129Z,12.79
2017-10-04T03:22:24.732Z,12.77
2017-10-04T03:22:25.328Z,12.78
2017-10-04T03:22:25.934Z,12.77
2017-10-04T03:22:26.526Z,12.78
2017-10-04T03:22:27.125Z,12.79
2017-10-04T03:23:20.606Z,12.75
2017-10-04T03:23:21.182Z,12.78
2017-10-04T03:23:21.780Z,12.78
2017-10-04T03:23:22.380Z,12.77
2017-10-04T03:23:22.987Z,12.77
2017-10-04T03:23:23.581Z,12.77
2017-10-04T03:23:24.181Z,12.78
2017-10-04T03:23:24.780Z,12.81
2017-10-04T03:24:19.284Z,12.75
2017-10-04T03:24:19.855Z,12.78
2017-10-04T03:24:20.455Z,12.77
2017-10-04T03:24:21.054Z,12.82
2017-10-04T03:24:21.655Z,12.82
2017-10-04T03:24:22.254Z,12.77
2017-10-04T03:24:22.854Z,12.81
2017-10-04T03:24:23.454Z,12.78
2017-10-04T03:25:17.959Z,12.75
2017-10-04T03:25:18.533Z,12.77
2017-10-04T03:25:19.136Z,12.75
2017-10-04T03:25:19.730Z,12.79
2017-10-04T03:25:20.332Z,12.71
2017-10-04T03:25:20.932Z,12.82
2017-10-04T03:25:21.531Z,12.74
2017-10-04T03:25:22.130Z,12.82
2017-10-04T03:26:15.609Z,12.75
2017-10-04T03:26:16.188Z,12.75
2017-10-04T03:26:16.788Z,12.69
2017-10-04T03:26:17.383Z,12.70
2017-10-04T03:26:17.984Z,12.79
2017-10-04T03:26:18.583Z,12.75
2017-10-04T03:26:19.182Z,12.74
2017-10-04T03:26:19.784Z,12.81
2017-10-04T03:27:14.287Z,12.77
2017-10-04T03:27:14.859Z,12.79
2017-10-04T03:27:15.461Z,12.81
2017-10-04T03:27:16.058Z,12.79
2017-10-04T03:27:16.659Z,12.79
2017-10-04T03:27:17.258Z,12.77
2017-10-04T03:27:17.857Z,12.79
2017-10-04T03:27:18.458Z,12.82
2017-10-04T03:28:12.961Z,12.77
2017-10-04T03:28:13.534Z,12.78
2017-10-04T03:28:14.135Z,12.78
2017-10-04T03:28:14.742Z,12.77
2017-10-04T03:28:15.335Z,12.84
2017-10-04T03:28:15.934Z,12.78
2017-10-04T03:28:16.534Z,12.79
2017-10-04T03:28:17.132Z,12.78
2017-10-04T03:29:11.638Z,12.75
2017-10-04T03:29:12.210Z,12.81
2017-10-04T03:29:12.809Z,12.84
2017-10-04T03:29:13.409Z,12.78
2017-10-04T03:29:14.011Z,12.77
2017-10-04T03:29:14.612Z,12.84
2017-10-04T03:29:15.209Z,12.78
2017-10-04T03:29:15.810Z,12.77
2017-10-04T03:30:09.289Z,12.81
2017-10-04T03:30:09.865Z,12.79
2017-10-04T03:30:10.464Z,12.79
2017-10-04T03:30:11.064Z,12.74
2017-10-04T03:30:11.663Z,12.77